createdAt,value
2018-11-22T00:01:08.341Z,76.07
2018-11-22T00:03:37.927Z,75.52
2018-11-22T00:06:08.008Z,75.48
2018-11-22T00:08:37.888Z,75.69
2018-11-22T00:11:07.542Z,75.48
2018-11-22T00:13:36.299Z,76.28
2018-11-22T00:16:06.139Z,75.69
2018-11-22T00:18:35.493Z,76.27
2018-11-22T00:21:05.067Z,76.25
2018-11-22T00:23:34.230Z,76.38
2018-11-22T00:26:03.235Z,76.68
2018-11-22T00:28:32.224Z,76.92
2018-11-22T00:31:01.225Z,76.16
2018-11-22T00:33:30.531Z,76.42
2018-11-22T00:35:59.663Z,76.15
2018-11-22T00:38:28.345Z,77.01
2018-11-22T00:40:57.600Z,77.00
2018-11-22T00:43:27.305Z,77.29
2018-11-22T00:45:57.433Z,76.94
2018-11-22T00:48:26.791Z,76.88
2018-11-22T00:50:57.030Z,77.41
2018-11-22T00:53:26.177Z,76.91
2018-11-22T00:55:56.253Z,77.93
2018-11-22T00:58:26.144Z,76.96
2018-11-22T01:00:55.632Z,77.90
2018-11-22T01:03:27.131Z,77.46
2018-11-22T01:05:56.457Z,77.16
2018-11-22T01:08:25.493Z,77.80
2018-11-22T01:10:54.554Z,77.41
2018-11-22T01:13:23.955Z,77.20
2018-11-22T01:15:53.281Z,77.51
2018-11-22T01:18:23.552Z,77.79
2018-11-22T01:20:52.984Z,77.73
2018-11-22T01:23:22.954Z,77.72
2018-11-22T01:25:52.994Z,77.56
2018-11-22T01:28:23.009Z,78.21
2018-11-22T01:30:52.489Z,77.37
2018-11-22T01:33:22.222Z,77.90
2018-11-22T01:35:51.650Z,78.50
2018-11-22T01:38:20.661Z,78.63
2018-11-22T01:40:50.928Z,79.29
2018-11-22T01:43:19.957Z,78.62
2018-11-22T01:45:48.953Z,79.39
2018-11-22T01:48:18.358Z,80.03
2018-11-22T01:50:47.329Z,79.90
2018-11-22T01:53:16.357Z,80.22
2018-11-22T01:55:45.441Z,80.48
2018-11-22T01:58:15.169Z,80.45
2018-11-22T02:00:44.801Z,80.83
2018-11-22T02:03:13.921Z,80.67
2018-11-22T02:05:43.245Z,80.24
2018-11-22T02:08:12.860Z,79.94
2018-11-22T02:10:41.928Z,80.43
2018-11-22T02:13:11.511Z,80.16
2018-11-22T02:15:41.257Z,81.08
2018-11-22T02:18:10.911Z,80.77
2018-11-22T02:20:40.258Z,80.43
2018-11-22T02:23:08.940Z,79.94
2018-11-22T02:25:38.651Z,79.56
2018-11-22T02:28:08.097Z,80.63
2018-11-22T02:30:37.498Z,80.67
2018-11-22T02:33:06.599Z,79.76
2018-11-22T02:35:36.238Z,80.62
2018-11-22T02:38:05.784Z,80.20
2018-11-22T02:40:35.861Z,80.13
2018-11-22T02:43:07.564Z,81.04
2018-11-22T02:45:37.645Z,80.47
2018-11-22T02:48:18.198Z,80.37
2018-11-22T02:50:48.525Z,81.17
2018-11-22T02:53:17.536Z,81.48
2018-11-22T02:55:46.726Z,80.70
2018-11-22T02:58:16.160Z,81.20
2018-11-22T03:00:46.433Z,80.87
2018-11-22T03:03:17.050Z,82.11
2018-11-22T03:05:47.327Z,81.79
2018-11-22T03:08:17.337Z,82.44
2018-11-22T03:10:46.982Z,81.87
2018-11-22T03:13:17.658Z,81.42
2018-11-22T03:15:47.231Z,81.40
2018-11-22T03:18:16.355Z,81.77
2018-11-22T03:20:45.760Z,81.54
2018-11-22T03:23:14.483Z,81.82
2018-11-22T03:25:44.389Z,81.81
2018-11-22T03:28:14.177Z,81.24
2018-11-22T03:30:43.506Z,81.68
2018-11-22T03:33:12.855Z,80.93
2018-11-22T03:35:42.256Z,82.12
2018-11-22T03:38:12.950Z,81.54
2018-11-22T03:40:42.012Z,82.52
2018-11-22T03:43:11.700Z,81.80
2018-11-22T03:45:41.170Z,81.33
2018-11-22T03:48:16.229Z,81.26
2018-11-22T03:50:45.533Z,81.19
2018-11-22T03:53:14.800Z,81.53
2018-11-22T03:55:43.952Z,81.23
2018-11-22T03:58:13.007Z,81.03
2018-11-22T04:00:41.987Z,81.74
2018-11-22T04:03:11.717Z,81.60
2018-11-22T04:05:40.684Z,81.00
2018-11-22T04:08:10.017Z,81.30
2018-11-22T04:10:39.357Z,81.72
2018-11-22T04:13:08.302Z,81.77
2018-11-22T04:15:37.629Z,80.96
2018-11-22T04:18:06.812Z,81.78
2018-11-22T04:20:36.164Z,81.43
2018-11-22T04:23:06.182Z,82.11
2018-11-22T04:25:35.221Z,81.63
2018-11-22T04:28:05.728Z,81.57
2018-11-22T04:30:35.176Z,81.56
2018-11-22T04:33:03.926Z,81.74
2018-11-22T04:35:32.981Z,81.00
2018-11-22T04:38:02.385Z,81.10
2018-11-22T04:40:32.606Z,81.11
2018-11-22T04:43:01.706Z,81.25
2018-11-22T04:45:30.394Z,81.64
2018-11-22T04:48:03.678Z,81.47
2018-11-22T04:50:34.105Z,81.15
2018-11-22T04:53:05.047Z,81.39
2018-11-22T04:55:34.446Z,80.90
2018-11-22T04:58:03.487Z,81.89
2018-11-22T05:00:32.872Z,81.85
2018-11-22T05:03:01.875Z,81.40
2018-11-22T05:05:31.264Z,81.60
2018-11-22T05:08:00.906Z,81.43
2018-11-22T05:10:29.975Z,81.26
2018-11-22T05:12:59.246Z,82.03
2018-11-22T05:15:30.140Z,81.94
2018-11-22T05:17:59.478Z,82.70
2018-11-22T05:20:28.174Z,82.30
2018-11-22T05:22:57.214Z,80.69
2018-11-22T05:25:26.729Z,80.76
2018-11-22T05:27:56.414Z,81.95
2018-11-22T05:30:27.036Z,81.35
2018-11-22T05:32:56.305Z,81.82
2018-11-22T05:35:25.463Z,81.62
2018-11-22T05:37:54.993Z,81.41
2018-11-22T05:40:25.698Z,80.84
2018-11-22T05:42:54.845Z,80.23
2018-11-22T05:45:25.910Z,81.37
2018-11-22T05:47:55.484Z,81.50
2018-11-22T05:50:26.278Z,81.62
2018-11-22T05:52:56.974Z,81.28
2018-11-22T05:55:26.865Z,81.33
2018-11-22T05:57:55.926Z,80.98
2018-11-22T06:00:31.742Z,81.42
2018-11-22T06:03:02.809Z,81.77
2018-11-22T06:05:32.844Z,81.76
2018-11-22T06:08:01.945Z,81.73
2018-11-22T06:10:33.508Z,80.22
2018-11-22T06:13:03.476Z,80.79
2018-11-22T06:15:32.855Z,81.16
2018-11-22T06:18:02.192Z,80.96
2018-11-22T06:20:32.150Z,80.79
2018-11-22T06:23:01.508Z,81.41
2018-11-22T06:25:31.723Z,80.59
2018-11-22T06:28:01.043Z,80.71
2018-11-22T06:30:31.754Z,81.23
2018-11-22T06:33:02.042Z,81.55
2018-11-22T06:35:32.428Z,81.26
2018-11-22T06:38:01.466Z,80.93
2018-11-22T06:40:30.998Z,81.17
2018-11-22T06:43:00.740Z,81.60
2018-11-22T06:45:32.508Z,81.21
2018-11-22T06:48:01.894Z,81.42
2018-11-22T06:50:31.240Z,81.54
2018-11-22T06:53:00.316Z,81.77
2018-11-22T06:55:31.634Z,81.15
2018-11-22T06:58:00.944Z,81.12
2018-11-22T07:00:31.254Z,81.25
2018-11-22T07:03:02.220Z,81.60
2018-11-22T07:05:30.924Z,80.80
2018-11-22T07:08:00.489Z,80.50
2018-11-22T07:10:29.192Z,80.71
2018-11-22T07:12:59.333Z,80.63
2018-11-22T07:15:28.365Z,81.04
2018-11-22T07:17:57.445Z,80.02
2018-11-22T07:20:28.407Z,80.45
2018-11-22T07:22:59.232Z,79.20
2018-11-22T07:25:28.318Z,79.98
2018-11-22T07:27:57.387Z,80.07
2018-11-22T07:30:34.359Z,80.04
2018-11-22T07:33:04.793Z,79.28
2018-11-22T07:35:34.633Z,79.71
2018-11-22T07:38:04.054Z,79.28
2018-11-22T07:40:34.021Z,79.80
2018-11-22T07:43:03.238Z,78.90
2018-11-22T07:45:36.406Z,78.98
2018-11-22T07:48:06.866Z,78.85
2018-11-22T07:50:36.475Z,78.77
2018-11-22T07:53:06.081Z,78.26
2018-11-22T07:55:35.056Z,77.83
2018-11-22T07:58:04.200Z,79.54
2018-11-22T08:00:36.270Z,78.47
2018-11-22T08:03:06.524Z,78.33
2018-11-22T08:05:37.752Z,78.54
2018-11-22T08:08:07.931Z,78.23
2018-11-22T08:10:36.969Z,78.23
2018-11-22T08:13:06.741Z,77.37
2018-11-22T08:15:37.701Z,78.33
2018-11-22T08:18:07.397Z,77.54
2018-11-22T08:20:36.448Z,77.82
2018-11-22T08:23:06.113Z,77.86
2018-11-22T08:25:36.024Z,77.93
2018-11-22T08:28:06.720Z,78.03
2018-11-22T08:30:35.440Z,77.98
2018-11-22T08:33:04.713Z,78.05
2018-11-22T08:35:33.674Z,78.52
2018-11-22T08:38:02.666Z,77.96
2018-11-22T08:40:31.885Z,77.45
2018-11-22T08:43:01.737Z,77.76
2018-11-22T08:45:32.100Z,76.50
2018-11-22T08:48:01.322Z,77.10
2018-11-22T08:50:30.862Z,76.81
2018-11-22T08:53:01.291Z,77.29
2018-11-22T08:55:30.560Z,76.64
2018-11-22T08:58:00.091Z,76.94
2018-11-22T09:00:30.038Z,76.25
2018-11-22T09:03:01.180Z,76.69
2018-11-22T09:05:36.930Z,76.87
2018-11-22T09:08:09.319Z,76.89
2018-11-22T09:10:40.044Z,76.71
2018-11-22T09:13:09.602Z,76.25
2018-11-22T09:15:39.869Z,76.63
2018-11-22T09:18:10.255Z,76.72
2018-11-22T09:20:39.892Z,77.08
2018-11-22T09:23:09.719Z,76.82
2018-11-22T09:25:39.863Z,76.46
2018-11-22T09:28:10.017Z,76.55
2018-11-22T09:30:40.280Z,76.62
2018-11-22T09:33:10.873Z,77.77
2018-11-22T09:35:40.611Z,77.02
2018-11-22T09:38:10.359Z,76.30
2018-11-22T09:40:40.807Z,77.19
2018-11-22T09:43:11.192Z,76.83
2018-11-22T09:45:42.072Z,76.31
2018-11-22T09:48:12.160Z,77.00
2018-11-22T09:50:41.990Z,77.20
2018-11-22T09:53:12.127Z,76.77
2018-11-22T09:55:40.961Z,76.80
2018-11-22T09:58:10.686Z,77.13
2018-11-22T10:00:40.500Z,77.12
2018-11-22T10:03:11.555Z,78.04
2018-11-22T10:05:40.803Z,77.71
2018-11-22T10:08:10.265Z,77.70
2018-11-22T10:10:41.279Z,76.38
2018-11-22T10:13:11.689Z,76.34
2018-11-22T10:15:40.884Z,77.66
2018-11-22T10:18:10.595Z,77.61
2018-11-22T10:20:42.455Z,77.95
2018-11-22T10:23:11.464Z,77.72
2018-11-22T10:25:41.448Z,77.96
2018-11-22T10:28:10.552Z,77.46
2018-11-22T10:30:41.208Z,77.29
2018-11-22T10:33:10.709Z,77.58
2018-11-22T10:35:40.945Z,77.42
2018-11-22T10:38:11.476Z,76.87
2018-11-22T10:40:41.116Z,76.33
2018-11-22T10:43:11.064Z,75.73
2018-11-22T10:45:41.117Z,75.07
2018-11-22T10:48:12.286Z,75.40
2018-11-22T10:50:40.949Z,75.10
2018-11-22T10:53:11.107Z,75.21
2018-11-22T10:55:42.818Z,75.14
2018-11-22T10:58:11.795Z,76.19
2018-11-22T11:00:58.698Z,75.67
2018-11-22T11:03:48.070Z,74.26
2018-11-22T11:06:42.103Z,74.64
2018-11-22T11:09:11.043Z,74.58
2018-11-22T11:11:40.938Z,74.47
2018-11-22T11:14:11.057Z,74.74
2018-11-22T11:16:41.393Z,74.91
2018-11-22T11:19:12.503Z,74.26
2018-11-22T11:21:41.891Z,73.32
2018-11-22T11:24:12.021Z,73.76
2018-11-22T11:26:41.306Z,74.21
2018-11-22T11:29:15.337Z,72.42
2018-11-22T11:31:50.671Z,73.26
2018-11-22T11:34:22.331Z,73.35
2018-11-22T11:36:51.743Z,73.80
2018-11-22T11:39:22.807Z,73.84
2018-11-22T11:41:52.163Z,74.17
2018-11-22T11:44:21.333Z,74.90
2018-11-22T11:46:52.469Z,74.66
2018-11-22T11:49:23.118Z,73.94
2018-11-22T11:52:00.951Z,73.82
2018-11-22T11:54:31.918Z,73.87
2018-11-22T11:57:02.310Z,74.43
2018-11-22T11:59:33.854Z,74.68
2018-11-22T12:02:03.090Z,74.40
2018-11-22T12:04:33.616Z,73.56
2018-11-22T12:07:02.678Z,73.99
2018-11-22T12:09:32.858Z,73.40
2018-11-22T12:12:03.319Z,73.62
2018-11-22T12:14:33.368Z,73.38
2018-11-22T12:17:02.620Z,73.11
2018-11-22T12:19:34.759Z,73.66
2018-11-22T12:22:05.170Z,73.04
2018-11-22T12:24:34.743Z,73.08
2018-11-22T12:27:03.739Z,72.25
2018-11-22T12:29:32.415Z,72.76
2018-11-22T12:32:18.917Z,71.66
2018-11-22T12:35:11.942Z,72.58
2018-11-22T12:37:43.302Z,73.08
2018-11-22T12:40:12.438Z,72.06
2018-11-22T12:42:41.407Z,72.13
2018-11-22T12:45:10.100Z,73.05
2018-11-22T12:47:39.190Z,73.10
2018-11-22T12:50:09.696Z,72.99
2018-11-22T12:52:40.038Z,73.03
2018-11-22T12:55:11.130Z,73.65
2018-11-22T12:57:40.281Z,73.52
2018-11-22T13:00:12.228Z,73.69
2018-11-22T13:02:42.446Z,74.25
2018-11-22T13:05:13.545Z,74.51
2018-11-22T13:07:42.814Z,75.02
2018-11-22T13:10:16.565Z,74.69
2018-11-22T13:12:46.769Z,74.13
2018-11-22T13:15:17.220Z,74.60
2018-11-22T13:17:46.120Z,74.61
2018-11-22T13:20:18.011Z,73.82
2018-11-22T13:22:47.792Z,74.77
2018-11-22T13:25:18.447Z,75.31
2018-11-22T13:27:47.440Z,75.07
2018-11-22T13:30:18.580Z,75.52
2018-11-22T13:32:48.165Z,75.20
2018-11-22T13:35:18.066Z,74.94
2018-11-22T13:37:48.350Z,75.05
2018-11-22T13:40:18.301Z,75.32
2018-11-22T13:42:48.710Z,74.71
2018-11-22T13:45:23.603Z,74.71
2018-11-22T13:47:53.597Z,74.70
2018-11-22T13:50:25.295Z,74.70
2018-11-22T13:52:57.301Z,74.96
2018-11-22T13:55:26.557Z,74.67
2018-11-22T13:57:55.930Z,75.57
2018-11-22T14:00:26.583Z,75.47
2018-11-22T14:02:57.015Z,75.03
2018-11-22T14:05:26.346Z,75.15
2018-11-22T14:07:56.194Z,75.20
2018-11-22T14:10:25.248Z,75.73
2018-11-22T14:12:54.073Z,76.26
2018-11-22T14:15:24.619Z,75.80
2018-11-22T14:17:55.237Z,75.53
2018-11-22T14:20:28.622Z,75.61
2018-11-22T14:22:57.647Z,75.66
2018-11-22T14:25:26.745Z,75.96
2018-11-22T14:27:56.183Z,75.44
2018-11-22T14:30:27.163Z,74.76
2018-11-22T14:32:56.907Z,75.96
2018-11-22T14:35:26.790Z,75.23
2018-11-22T14:37:56.557Z,76.56
2018-11-22T14:40:30.409Z,76.86
2018-11-22T14:42:59.647Z,76.41
2018-11-22T14:45:30.222Z,76.16
2018-11-22T14:48:01.970Z,76.78
2018-11-22T14:50:39.246Z,76.56
2018-11-22T14:53:10.133Z,76.23
2018-11-22T14:55:39.183Z,75.98
2018-11-22T14:58:09.430Z,76.09
2018-11-22T15:00:38.188Z,76.49
2018-11-22T15:03:07.571Z,76.00
2018-11-22T15:05:36.679Z,76.46
2018-11-22T15:08:05.988Z,76.58
2018-11-22T15:10:35.428Z,77.17
2018-11-22T15:13:05.478Z,76.77
2018-11-22T15:15:34.858Z,76.82
2018-11-22T15:18:04.066Z,75.72
2018-11-22T15:20:32.806Z,76.23
2018-11-22T15:23:01.825Z,76.75
2018-11-22T15:25:30.819Z,76.46
2018-11-22T15:27:59.877Z,76.51
2018-11-22T15:30:30.217Z,76.51
2018-11-22T15:33:00.485Z,76.75
2018-11-22T15:35:30.475Z,75.92
2018-11-22T15:38:00.481Z,77.62
2018-11-22T15:40:29.670Z,77.66
2018-11-22T15:43:00.618Z,77.11
2018-11-22T15:45:34.762Z,77.62
2018-11-22T15:47:59.723Z,77.48
2018-11-22T15:50:29.338Z,77.07
2018-11-22T15:52:58.348Z,77.44
2018-11-22T15:55:27.723Z,78.03
2018-11-22T15:57:57.956Z,77.91
2018-11-22T16:00:34.251Z,78.21
2018-11-22T16:03:03.726Z,77.56
2018-11-22T16:05:33.387Z,77.48
2018-11-22T16:08:02.619Z,77.64
2018-11-22T16:10:33.733Z,78.41
2018-11-22T16:13:07.873Z,78.03
2018-11-22T16:15:51.821Z,77.75
2018-11-22T16:18:21.231Z,77.73
2018-11-22T16:20:50.363Z,78.55
2018-11-22T16:23:19.486Z,78.55
2018-11-22T16:25:49.267Z,78.14
2018-11-22T16:28:17.951Z,77.96
2018-11-22T16:30:47.318Z,78.38
2018-11-22T16:33:17.058Z,78.14
2018-11-22T16:35:46.795Z,77.52
2018-11-22T16:38:16.375Z,78.64
2018-11-22T16:40:46.292Z,78.53
2018-11-22T16:43:15.908Z,78.66
2018-11-22T16:45:44.902Z,79.13
2018-11-22T16:48:14.921Z,78.93
2018-11-22T16:50:44.364Z,79.26
2018-11-22T16:53:13.519Z,79.36
2018-11-22T16:55:42.582Z,78.83
2018-11-22T16:58:12.311Z,78.51
2018-11-22T17:00:42.049Z,79.49
2018-11-22T17:03:12.919Z,79.63
2018-11-22T17:05:42.643Z,79.59
2018-11-22T17:08:13.090Z,80.10
2018-11-22T17:10:42.627Z,79.17
2018-11-22T17:13:11.929Z,80.05
2018-11-22T17:15:43.395Z,79.98
2018-11-22T17:18:12.747Z,80.59
2018-11-22T17:20:43.489Z,80.13
2018-11-22T17:23:12.498Z,79.73
2018-11-22T17:25:41.503Z,79.91
2018-11-22T17:28:10.718Z,79.69
2018-11-22T17:30:43.460Z,80.03
2018-11-22T17:33:13.843Z,79.62
2018-11-22T17:35:43.440Z,79.33
2018-11-22T17:38:14.998Z,78.75
2018-11-22T17:40:45.780Z,79.21
2018-11-22T17:43:15.454Z,78.79
2018-11-22T17:45:45.784Z,78.77
2018-11-22T17:48:17.023Z,79.32
2018-11-22T17:50:47.318Z,79.56
2018-11-22T17:53:16.423Z,79.51
2018-11-22T17:55:46.187Z,79.00
2018-11-22T17:58:16.639Z,78.42
2018-11-22T18:00:48.448Z,79.89
2018-11-22T18:03:17.507Z,80.48
2018-11-22T18:05:47.431Z,79.73
2018-11-22T18:08:18.752Z,79.76
2018-11-22T18:10:48.870Z,79.06
2018-11-22T18:13:18.356Z,79.88
2018-11-22T18:15:57.750Z,79.11
2018-11-22T18:18:28.493Z,79.08
2018-11-22T18:20:57.902Z,80.40
2018-11-22T18:23:26.966Z,80.79
2018-11-22T18:25:56.720Z,80.56
2018-11-22T18:28:27.833Z,80.24
2018-11-22T18:30:56.883Z,80.35
2018-11-22T18:33:25.951Z,79.82
2018-11-22T18:35:56.910Z,80.15
2018-11-22T18:38:25.967Z,79.94
2018-11-22T18:40:57.234Z,80.07
2018-11-22T18:43:25.957Z,79.77
2018-11-22T18:45:55.711Z,80.41
2018-11-22T18:48:25.499Z,81.17
2018-11-22T18:50:54.659Z,81.75
2018-11-22T18:53:24.881Z,80.21
2018-11-22T18:55:54.814Z,80.44
2018-11-22T18:58:23.791Z,81.40
2018-11-22T19:00:54.868Z,80.74
2018-11-22T19:03:24.333Z,81.37
2018-11-22T19:05:54.600Z,80.46
2018-11-22T19:08:24.656Z,81.50
2018-11-22T19:10:54.747Z,81.91
2018-11-22T19:13:23.813Z,80.91
2018-11-22T19:15:53.769Z,81.68
2018-11-22T19:18:22.513Z,82.31
2018-11-22T19:20:51.242Z,81.69
2018-11-22T19:23:20.643Z,82.45
2018-11-22T19:25:49.975Z,82.54
2018-11-22T19:28:19.933Z,81.69
2018-11-22T19:30:49.230Z,82.30
2018-11-22T19:33:19.760Z,82.94
2018-11-22T19:35:51.095Z,82.87
2018-11-22T19:38:20.558Z,82.72
2018-11-22T19:40:50.199Z,82.59
2018-11-22T19:43:19.180Z,82.49
2018-11-22T19:45:50.265Z,83.00
2018-11-22T19:48:19.299Z,84.01
2018-11-22T19:50:49.370Z,83.10
2018-11-22T19:53:18.310Z,82.18
2018-11-22T19:55:47.612Z,83.85
2018-11-22T19:58:17.774Z,83.27
2018-11-22T20:00:47.762Z,84.02
2018-11-22T20:03:16.457Z,83.69
2018-11-22T20:05:46.756Z,84.22
2018-11-22T20:08:17.762Z,84.05
2018-11-22T20:10:48.196Z,84.11
2018-11-22T20:13:17.490Z,84.76
2018-11-22T20:15:47.053Z,85.26
2018-11-22T20:18:15.790Z,84.92
2018-11-22T20:20:49.598Z,85.63
2018-11-22T20:23:17.638Z,85.98
2018-11-22T20:25:46.031Z,84.79
2018-11-22T20:28:15.327Z,86.04
2018-11-22T20:30:45.723Z,85.88
2018-11-22T20:33:14.451Z,86.30
2018-11-22T20:35:43.497Z,86.45
2018-11-22T20:38:13.877Z,86.31
2018-11-22T20:40:43.022Z,86.26
2018-11-22T20:43:12.059Z,85.92
2018-11-22T20:45:41.738Z,86.36
2018-11-22T20:48:11.813Z,86.10
2018-11-22T20:50:40.820Z,86.42
2018-11-22T20:53:09.508Z,86.06
2018-11-22T20:55:39.681Z,85.57
2018-11-22T20:58:08.374Z,85.80
2018-11-22T21:00:38.791Z,85.82
2018-11-22T21:03:07.967Z,86.60
2018-11-22T21:05:37.154Z,85.94
2018-11-22T21:08:05.866Z,86.70
2018-11-22T21:10:35.640Z,86.13
2018-11-22T21:13:04.650Z,86.41
2018-11-22T21:15:34.709Z,85.15
2018-11-22T21:18:05.122Z,85.76
2018-11-22T21:20:38.315Z,86.43
2018-11-22T21:23:07.925Z,86.34
2018-11-22T21:25:36.633Z,87.56
2018-11-22T21:28:06.951Z,86.15
2018-11-22T21:30:37.263Z,86.61
2018-11-22T21:33:07.067Z,86.83
2018-11-22T21:35:36.431Z,87.11
2018-11-22T21:38:07.866Z,87.34
2018-11-22T21:40:37.091Z,87.48
2018-11-22T21:43:07.209Z,86.91
2018-11-22T21:45:37.043Z,87.36
2018-11-22T21:48:05.977Z,87.99
2018-11-22T21:50:35.588Z,88.54
2018-11-22T21:53:04.275Z,87.91
2018-11-22T21:55:33.275Z,87.99
2018-11-22T21:58:02.933Z,88.85
2018-11-22T22:00:42.412Z,88.40
2018-11-22T22:03:12.626Z,88.16
2018-11-22T22:05:41.907Z,87.74
2018-11-22T22:08:10.627Z,88.78
2018-11-22T22:10:40.270Z,88.60
2018-11-22T22:13:09.697Z,89.15
2018-11-22T22:15:39.473Z,88.42
2018-11-22T22:18:09.776Z,89.13
2018-11-22T22:20:38.867Z,88.85
2018-11-22T22:23:13.308Z,89.01
2018-11-22T22:25:39.304Z,88.66
2018-11-22T22:28:08.255Z,89.32
2018-11-22T22:30:37.609Z,89.19
2018-11-22T22:33:07.624Z,87.43
2018-11-22T22:35:37.096Z,89.17
2018-11-22T22:38:05.792Z,89.08
2018-11-22T22:40:35.232Z,89.45
2018-11-22T22:43:04.578Z,89.22
2018-11-22T22:45:33.941Z,88.91
2018-11-22T22:48:03.466Z,88.54
2018-11-22T22:50:33.186Z,88.65
2018-11-22T22:53:02.609Z,88.54
2018-11-22T22:55:31.892Z,88.86
2018-11-22T22:58:01.526Z,89.00
2018-11-22T23:00:47.072Z,88.78
2018-11-22T23:03:17.315Z,88.35
2018-11-22T23:05:46.423Z,89.30
2018-11-22T23:08:15.917Z,89.34
2018-11-22T23:10:45.558Z,89.21
2018-11-22T23:13:14.605Z,88.94
2018-11-22T23:15:46.189Z,89.06
2018-11-22T23:18:15.263Z,88.19
2018-11-22T23:20:44.677Z,89.35
2018-11-22T23:23:13.854Z,89.65
2018-11-22T23:25:44.045Z,89.54
2018-11-22T23:28:13.591Z,89.60
2018-11-22T23:30:43.250Z,88.17
2018-11-22T23:33:12.646Z,88.29
2018-11-22T23:35:41.753Z,89.24
2018-11-22T23:38:16.552Z,89.11
2018-11-22T23:40:47.926Z,88.21
2018-11-22T23:43:18.735Z,88.33
2018-11-22T23:45:47.847Z,89.24
2018-11-22T23:48:17.312Z,89.66
2018-11-22T23:50:47.337Z,90.12
2018-11-22T23:53:16.431Z,89.60
2018-11-22T23:55:45.508Z,88.53
2018-11-22T23:58:14.556Z,89.79
